Time;durP1;ratioP1;P1;durP2;ratioP2;P2;SDS_P1;SDS_P2;PMS_P1;PMS_P2;Temp;Humidity;BMP_temperature;BMP_pressure;BME280_temperature;BME280_humidity;BME280_pressure;Samples;Min_cycle;Max_cycle;Signal;HPM_P1;HPM_P2
2022/07/19 00:00:14;;;;;;;;;;;;;;;;;;2073687;28;20304;-87
2022/07/19 00:01:15;;;;;;;;;;;;;;;;;;2073720;28;20000;-88
2022/07/19 00:02:15;;;;;;;;;;;;;;;;;;2073562;28;19918;-89
2022/07/19 00:03:17;;;;;;;;;;;;;;;;;;2073678;28;20297;-89
2022/07/19 00:04:17;;;;;;;;;;;;;;;;;;2074128;28;19917;-87
2022/07/19 00:05:18;;;;;;;;;;;;;;;;;;2073695;28;20417;-86
2022/07/19 00:06:18;;;;;;;;;;;;;;;;;;2075417;28;19985;-87
2022/07/19 00:07:19;;;;;;;;;;;;;;;;;;2077669;28;19972;-88
2022/07/19 00:08:19;;;;;;;;;;;;;;;;;;2078412;28;19968;-87
2022/07/19 00:09:19;;;;;;;;;;;;;;;;;;2078774;28;19928;-90
2022/07/19 00:10:20;;;;;;;;;;;;;;;;;;2078397;28;19952;-86
2022/07/19 00:11:27;;;;;;;;;;;;;;;;;;2078935;28;19913;-88
2022/07/19 00:12:30;;;;;;;;;;;;;;;;;;2081395;28;20342;-91
2022/07/19 00:13:32;;;;;;;;;;;;;;;;;;2074591;28;19913;-87
2022/07/19 00:14:33;;;;;;;;;;;;;;;;;;2074030;28;19924;-87
2022/07/19 00:15:33;;;;;;;;;;;;;;;;;;2074051;28;19913;-90
2022/07/19 00:16:33;;;;;;;;;;;;;;;;;;2073552;28;19936;-88
2022/07/19 00:17:33;;;;;;;;;;;;;;;;;;2073706;28;19983;-89
2022/07/19 00:18:34;;;;;;;;;;;;;;;;;;2074279;28;20604;-90
2022/07/19 00:19:36;;;;;;;;;;;;;;;;;;2074470;28;19956;-89
2022/07/19 00:20:36;;;;;;;;;;;;;;;;;;2074471;28;19917;-89
2022/07/19 00:21:37;;;;;;;;;;;;;;;;;;2073748;28;19949;-90
2022/07/19 00:22:40;;;;;;;;;;;;;;;;;;2073664;28;19913;-89
2022/07/19 00:23:40;;;;;;;;;;;;;;;;;;2074326;28;20012;-91
2022/07/19 00:24:43;;;;;;;;;;;;;;;;;;2074118;28;19920;-90
2022/07/19 00:25:43;;;;;;;;;;;;;;;;;;2074024;28;19917;-88
2022/07/19 00:26:44;;;;;;;;;;;;;;;;;;2073997;28;19960;-90
2022/07/19 00:27:44;;;;;;;;;;;;;;;;;;2073859;28;20397;-89
2022/07/19 00:28:46;;;;;;;;;;;;;;;;;;2074316;28;20363;-88
2022/07/19 00:29:47;;;;;;;;;;;;;;;;;;2074185;28;19975;-90
2022/07/19 00:30:47;;;;;;;;;;;;;;;;;;2074051;28;19964;-87
2022/07/19 00:31:47;;;;;;;;;;;;;;;;;;2073828;28;19925;-86
2022/07/19 00:32:47;;;;;;;;;;;;;;;;;;2073995;28;19913;-89
2022/07/19 00:33:48;;;;;;;;;;;;;;;;;;2073336;28;19913;-87
2022/07/19 00:34:50;;;;;;;;;;;;;;;;;;2073688;28;19914;-87
2022/07/19 00:35:53;;;;;;;;;;;;;;;;;;2074181;28;19917;-91
2022/07/19 00:36:54;;;;;;;;;;;;;;;;;;2073904;28;19913;-88
2022/07/19 00:37:54;;;;;;;;;;;;;;;;;;2073879;28;19936;-86
2022/07/19 00:38:54;;;;;;;;;;;;;;;;;;2073296;28;20366;-87
2022/07/19 00:39:54;;;;;;;;;;;;;;;;;;2073371;28;19917;-90
2022/07/19 00:40:55;;;;;;;;;;;;;;;;;;2074074;28;20397;-88
2022/07/19 00:41:55;;;;;;;;;;;;;;;;;;2073811;28;19913;-87
2022/07/19 00:42:56;;;;;;;;;;;;;;;;;;2074021;28;20309;-87
2022/07/19 00:43:57;;;;;;;;;;;;;;;;;;2073729;28;20321;-87
2022/07/19 00:44:57;;;;;;;;;;;;;;;;;;2073832;28;19913;-90
2022/07/19 00:46:00;;;;;;;;;;;;;;;;;;2073150;28;19964;-87
2022/07/19 00:47:02;;;;;;;;;;;;;;;;;;2073194;28;20338;-89
2022/07/19 00:48:03;;;;;;;;;;;;;;;;;;2073503;28;20342;-86
2022/07/19 00:49:04;;;;;;;;;;;;;;;;;;2073195;28;19957;-88
2022/07/19 00:50:05;;;;;;;;;;;;;;;;;;2073782;28;20422;-88
2022/07/19 00:51:05;;;;;;;;;;;;;;;;;;2073874;28;19914;-86
2022/07/19 00:52:05;;;;;;;;;;;;;;;;;;2073917;28;19991;-86
2022/07/19 00:53:06;;;;;;;;;;;;;;;;;;2073602;28;20020;-88
2022/07/19 00:54:10;;;;;;;;;;;;;;;;;;2073261;28;19924;-86
2022/07/19 00:55:11;;;;;;;;;;;;;;;;;;2073236;28;19926;-88
2022/07/19 00:56:12;;;;;;;;;;;;;;;;;;2073138;28;20015;-88
2022/07/19 00:57:14;;;;;;;;;;;;;;;;;;2073102;28;19924;-88
2022/07/19 00:58:16;;;;;;;;;;;;;;;;;;2073860;28;20406;-87
2022/07/19 00:59:17;;;;;;;;;;;;;;;;;;2073895;28;19913;-86
2022/07/19 01:00:18;;;;;;;;;;;;;;;;;;2073905;28;19917;-86
2022/07/19 01:01:18;;;;;;;;;;;;;;;;;;2073577;28;19948;-87
2022/07/19 01:02:18;;;;;;;;;;;;;;;;;;2073291;28;20401;-88
2022/07/19 01:03:19;;;;;;;;;;;;;;;;;;2073224;28;19992;-91
2022/07/19 01:04:20;;;;;;;;;;;;;;;;;;2073432;28;19913;-88
2022/07/19 01:05:20;;;;;;;;;;;;;;;;;;2074001;28;19914;-88
2022/07/19 01:06:20;;;;;;;;;;;;;;;;;;2073824;28;19913;-89
2022/07/19 01:07:21;;;;;;;;;;;;;;;;;;2073772;28;19914;-89
2022/07/19 01:08:23;;;;;;;;;;;;;;;;;;2073943;28;20062;-87
2022/07/19 01:09:24;;;;;;;;;;;;;;;;;;2073268;28;20424;-89
2022/07/19 01:10:24;;;;;;;;;;;;;;;;;;2073388;28;19976;-87
2022/07/19 01:11:25;;;;;;;;;;;;;;;;;;2073195;28;19914;-86
2022/07/19 01:12:26;;;;;;;;;;;;;;;;;;2073236;28;20355;-85
2022/07/19 01:13:26;;;;;;;;;;;;;;;;;;2073174;28;19979;-90
2022/07/19 01:14:26;;;;;;;;;;;;;;;;;;2073576;28;20016;-83
2022/07/19 01:15:27;;;;;;;;;;;;;;;;;;2073619;28;19924;-89
2022/07/19 01:16:28;;;;;;;;;;;;;;;;;;2073766;28;19924;-89
2022/07/19 01:17:29;;;;;;;;;;;;;;;;;;2073815;28;19932;-89
2022/07/19 01:18:29;;;;;;;;;;;;;;;;;;2074021;28;19913;-86
2022/07/19 01:19:30;;;;;;;;;;;;;;;;;;2073837;28;20355;-87
2022/07/19 01:20:30;;;;;;;;;;;;;;;;;;2073799;28;19921;-89
2022/07/19 01:21:33;;;;;;;;;;;;;;;;;;2073306;28;20411;-88
2022/07/19 01:22:34;;;;;;;;;;;;;;;;;;2073332;28;19957;-85
2022/07/19 01:23:34;;;;;;;;;;;;;;;;;;2073659;28;19939;-90
2022/07/19 01:24:34;;;;;;;;;;;;;;;;;;2073583;28;20000;-85
2022/07/19 01:25:36;;;;;;;;;;;;;;;;;;2073815;28;19920;-88
2022/07/19 01:26:36;;;;;;;;;;;;;;;;;;2073210;28;19928;-87
2022/07/19 01:27:43;;;;;;;;;;;;;;;;;;2073159;28;19976;-89
2022/07/19 01:28:44;;;;;;;;;;;;;;;;;;2073530;28;19953;-88
2022/07/19 01:29:44;;;;;;;;;;;;;;;;;;2073835;28;20355;-86
2022/07/19 01:30:44;;;;;;;;;;;;;;;;;;2073982;28;19913;-86
2022/07/19 01:31:45;;;;;;;;;;;;;;;;;;2073771;28;20156;-86
2022/07/19 01:32:45;;;;;;;;;;;;;;;;;;2074062;28;19913;-88
2022/07/19 01:33:45;;;;;;;;;;;;;;;;;;2073360;28;19914;-87
2022/07/19 01:34:53;;;;;;;;;;;;;;;;;;2073472;28;20286;-87
2022/07/19 01:35:53;;;;;;;;;;;;;;;;;;2073426;28;20016;-87
2022/07/19 01:36:53;;;;;;;;;;;;;;;;;;2073676;28;19937;-85
2022/07/19 01:37:54;;;;;;;;;;;;;;;;;;2073971;28;19971;-87
2022/07/19 01:38:54;;;;;;;;;;;;;;;;;;2073535;28;20358;-89
2022/07/19 01:39:56;;;;;;;;;;;;;;;;;;2073736;28;19921;-89
2022/07/19 01:40:57;;;;;;;;;;;;;;;;;;2073649;28;19914;-86
2022/07/19 01:41:57;;;;;;;;;;;;;;;;;;2073480;28;19913;-85
2022/07/19 01:42:58;;;;;;;;;;;;;;;;;;2073484;28;20020;-87
2022/07/19 01:44:00;;;;;;;;;;;;;;;;;;2073380;28;19913;-85
2022/07/19 01:45:01;;;;;;;;;;;;;;;;;;2072992;28;19917;-85
2022/07/19 01:46:02;;;;;;;;;;;;;;;;;;2073195;28;20386;-87
2022/07/19 01:47:02;;;;;;;;;;;;;;;;;;2074061;28;19917;-88
2022/07/19 01:48:03;;;;;;;;;;;;;;;;;;2073828;28;19936;-88
2022/07/19 01:49:03;;;;;;;;;;;;;;;;;;2073471;28;19913;-86
2022/07/19 01:50:04;;;;;;;;;;;;;;;;;;2073595;28;19970;-85
2022/07/19 01:51:05;;;;;;;;;;;;;;;;;;2073504;28;19913;-86
2022/07/19 01:52:05;;;;;;;;;;;;;;;;;;2073763;28;19920;-87
2022/07/19 01:53:08;;;;;;;;;;;;;;;;;;2073484;28;19963;-92
2022/07/19 01:54:08;;;;;;;;;;;;;;;;;;2073055;28;19979;-85
2022/07/19 01:55:08;;;;;;;;;;;;;;;;;;2072890;28;19917;-85
2022/07/19 01:56:09;;;;;;;;;;;;;;;;;;2072981;28;19949;-87
2022/07/19 01:57:09;;;;;;;;;;;;;;;;;;2073154;28;20437;-88
2022/07/19 01:58:09;;;;;;;;;;;;;;;;;;2073807;28;19913;-85
2022/07/19 01:59:09;;;;;;;;;;;;;;;;;;2073666;28;20358;-86
2022/07/19 02:00:10;;;;;;;;;;;;;;;;;;2073995;28;19917;-88
2022/07/19 02:01:11;;;;;;;;;;;;;;;;;;2073510;28;20438;-85
2022/07/19 02:02:11;;;;;;;;;;;;;;;;;;2073663;28;19913;-86
2022/07/19 02:03:11;;;;;;;;;;;;;;;;;;2074640;28;20375;-88
2022/07/19 02:04:12;;;;;;;;;;;;;;;;;;2074309;28;20218;-84
2022/07/19 02:05:12;;;;;;;;;;;;;;;;;;2074581;28;19913;-86
2022/07/19 02:06:13;;;;;;;;;;;;;;;;;;2074459;28;20004;-85
2022/07/19 02:07:13;;;;;;;;;;;;;;;;;;2075276;28;20275;-87
2022/07/19 02:08:14;;;;;;;;;;;;;;;;;;2074267;28;20401;-88
2022/07/19 02:09:17;;;;;;;;;;;;;;;;;;2074588;28;19914;-86
2022/07/19 02:10:17;;;;;;;;;;;;;;;;;;2074299;28;19964;-86
2022/07/19 02:11:36;;;;;;;;;;;;;;;;;;2074359;28;19917;-86
2022/07/19 02:12:36;;;;;;;;;;;;;;;;;;2074957;28;20001;-88
2022/07/19 02:13:36;;;;;;;;;;;;;;;;;;2074846;28;20291;-85
2022/07/19 02:14:37;;;;;;;;;;;;;;;;;;2074754;28;19979;-89
2022/07/19 02:15:37;;;;;;;;;;;;;;;;;;2074812;28;19975;-90
2022/07/19 02:16:38;;;;;;;;;;;;;;;;;;2074806;28;20030;-90
2022/07/19 02:17:38;;;;;;;;;;;;;;;;;;2074779;28;19956;-87
2022/07/19 02:18:38;;;;;;;;;;;;;;;;;;2074849;28;19940;-94
2022/07/19 02:19:39;;;;;;;;;;;;;;;;;;2074472;28;20090;-89
2022/07/19 02:20:39;;;;;;;;;;;;;;;;;;2074314;28;19949;-88
2022/07/19 02:21:39;;;;;;;;;;;;;;;;;;2074871;28;20354;-88
2022/07/19 02:22:40;;;;;;;;;;;;;;;;;;2074760;28;19913;-88
2022/07/19 02:23:40;;;;;;;;;;;;;;;;;;2074316;28;19969;-88
2022/07/19 02:24:42;;;;;;;;;;;;;;;;;;2074224;28;20016;-87
2022/07/19 02:25:42;;;;;;;;;;;;;;;;;;2074341;28;19914;-86
2022/07/19 02:26:43;;;;;;;;;;;;;;;;;;2074217;28;19961;-87
2022/07/19 02:27:43;;;;;;;;;;;;;;;;;;2074365;28;20374;-86
2022/07/19 02:28:43;;;;;;;;;;;;;;;;;;2074415;28;20289;-86
2022/07/19 02:29:43;;;;;;;;;;;;;;;;;;2074437;28;20421;-87
2022/07/19 02:30:44;;;;;;;;;;;;;;;;;;2082328;28;19917;-87
2022/07/19 02:31:44;;;;;;;;;;;;;;;;;;2082661;28;19925;-84
2022/07/19 02:32:47;;;;;;;;;;;;;;;;;;2074391;28;20309;-87
2022/07/19 02:33:50;;;;;;;;;;;;;;;;;;2066418;28;20427;-87
2022/07/19 02:34:50;;;;;;;;;;;;;;;;;;2074232;28;19913;-88
2022/07/19 02:35:51;;;;;;;;;;;;;;;;;;2074458;28;19913;-85
2022/07/19 02:36:51;;;;;;;;;;;;;;;;;;2074891;28;19913;-86
2022/07/19 02:37:51;;;;;;;;;;;;;;;;;;2074918;28;19920;-85
2022/07/19 02:38:54;;;;;;;;;;;;;;;;;;2074772;28;20376;-86
2022/07/19 02:39:54;;;;;;;;;;;;;;;;;;2074780;28;19983;-86
2022/07/19 02:40:54;;;;;;;;;;;;;;;;;;2074727;28;20323;-85
2022/07/19 02:41:55;;;;;;;;;;;;;;;;;;2074603;28;19913;-87
2022/07/19 02:42:55;;;;;;;;;;;;;;;;;;2074770;28;19976;-87
2022/07/19 02:43:55;;;;;;;;;;;;;;;;;;2074731;28;19939;-89
2022/07/19 02:44:56;;;;;;;;;;;;;;;;;;2074802;28;19914;-88
2022/07/19 02:45:56;;;;;;;;;;;;;;;;;;2074688;28;20402;-91
2022/07/19 02:46:56;;;;;;;;;;;;;;;;;;2074547;28;19921;-88
2022/07/19 02:48:00;;;;;;;;;;;;;;;;;;2074581;28;19917;-89
2022/07/19 02:49:00;;;;;;;;;;;;;;;;;;2074356;28;19918;-87
2022/07/19 02:50:04;;;;;;;;;;;;;;;;;;2065903;28;20013;-86
2022/07/19 02:51:04;;;;;;;;;;;;;;;;;;2066121;28;19918;-87
2022/07/19 02:52:04;;;;;;;;;;;;;;;;;;2074175;28;20342;-88
2022/07/19 02:53:05;;;;;;;;;;;;;;;;;;2074671;28;20363;-86
2022/07/19 02:54:05;;;;;;;;;;;;;;;;;;2074463;28;19913;-87
2022/07/19 02:55:05;;;;;;;;;;;;;;;;;;2074594;28;19967;-86
2022/07/19 02:56:06;;;;;;;;;;;;;;;;;;2073933;28;19925;-89
2022/07/19 02:57:06;;;;;;;;;;;;;;;;;;2074122;28;19929;-89
2022/07/19 02:58:09;;;;;;;;;;;;;;;;;;2074441;28;20008;-86
2022/07/19 02:59:09;;;;;;;;;;;;;;;;;;2074684;28;19913;-87
2022/07/19 03:00:12;;;;;;;;;;;;;;;;;;2074580;28;20354;-90
2022/07/19 03:01:13;;;;;;;;;;;;;;;;;;2074153;28;19964;-88
2022/07/19 03:02:13;;;;;;;;;;;;;;;;;;2074420;28;19913;-89
2022/07/19 03:04:32;;;;;;;;;;;;;;;;;;2075660;28;20186;-89
2022/07/19 03:05:35;;;;;;;;;;;;;;;;;;2083042;28;19968;-87
2022/07/19 03:06:35;;;;;;;;;;;;;;;;;;2084184;28;19936;-90
2022/07/19 03:07:36;;;;;;;;;;;;;;;;;;2084190;28;19926;-86
2022/07/19 03:08:36;;;;;;;;;;;;;;;;;;2084334;28;19901;-89
2022/07/19 03:09:36;;;;;;;;;;;;;;;;;;2084010;28;19977;-90
2022/07/19 03:10:37;;;;;;;;;;;;;;;;;;2077675;28;19928;-90
2022/07/19 03:11:38;;;;;;;;;;;;;;;;;;2075071;28;19917;-86
2022/07/19 03:12:38;;;;;;;;;;;;;;;;;;2074492;28;20264;-87
2022/07/19 03:13:38;;;;;;;;;;;;;;;;;;2075155;28;20004;-86
2022/07/19 03:14:38;;;;;;;;;;;;;;;;;;2078995;28;20361;-88
2022/07/19 03:15:39;;;;;;;;;;;;;;;;;;2066506;28;20044;-87
2022/07/19 03:16:39;;;;;;;;;;;;;;;;;;2073979;28;19957;-87
2022/07/19 03:17:39;;;;;;;;;;;;;;;;;;2074614;28;19913;-86
2022/07/19 03:18:39;;;;;;;;;;;;;;;;;;2074441;28;19913;-86
2022/07/19 03:19:40;;;;;;;;;;;;;;;;;;2074946;28;19913;-87
2022/07/19 03:20:40;;;;;;;;;;;;;;;;;;2074477;28;19975;-86
2022/07/19 03:21:40;;;;;;;;;;;;;;;;;;2074465;28;19913;-86
2022/07/19 03:22:41;;;;;;;;;;;;;;;;;;2074611;28;20398;-88
2022/07/19 03:23:41;;;;;;;;;;;;;;;;;;2074571;28;19971;-87
2022/07/19 03:24:41;;;;;;;;;;;;;;;;;;2074411;28;20045;-86
2022/07/19 03:25:41;;;;;;;;;;;;;;;;;;2074387;28;19913;-88
2022/07/19 03:26:42;;;;;;;;;;;;;;;;;;2074231;28;19964;-85
2022/07/19 03:27:42;;;;;;;;;;;;;;;;;;2074225;28;19979;-87
2022/07/19 03:28:42;;;;;;;;;;;;;;;;;;2073895;28;20008;-87
2022/07/19 03:29:43;;;;;;;;;;;;;;;;;;2073711;28;20072;-87
2022/07/19 03:30:44;;;;;;;;;;;;;;;;;;2074449;28;19975;-87
2022/07/19 03:31:44;;;;;;;;;;;;;;;;;;2073738;28;19925;-86
2022/07/19 03:32:46;;;;;;;;;;;;;;;;;;2073899;28;20333;-86
2022/07/19 03:33:46;;;;;;;;;;;;;;;;;;2073744;28;19922;-95
2022/07/19 03:34:49;;;;;;;;;;;;;;;;;;2073944;28;20011;-91
2022/07/19 03:35:51;;;;;;;;;;;;;;;;;;2073714;28;19924;-89
2022/07/19 03:36:51;;;;;;;;;;;;;;;;;;2073522;28;19913;-92
2022/07/19 03:37:52;;;;;;;;;;;;;;;;;;2073584;28;19914;-87
2022/07/19 03:38:52;;;;;;;;;;;;;;;;;;2073533;28;19914;-84
2022/07/19 03:39:52;;;;;;;;;;;;;;;;;;2073637;28;19921;-85
2022/07/19 03:40:53;;;;;;;;;;;;;;;;;;2074196;28;20274;-85
2022/07/19 03:41:53;;;;;;;;;;;;;;;;;;2074119;28;19913;-87
2022/07/19 03:42:58;;;;;;;;;;;;;;;;;;2074285;28;20542;-88
2022/07/19 03:44:00;;;;;;;;;;;;;;;;;;2073717;28;20240;-86
2022/07/19 03:45:01;;;;;;;;;;;;;;;;;;2073784;28;19917;-88
2022/07/19 03:46:04;;;;;;;;;;;;;;;;;;2073551;28;20369;-85
2022/07/19 03:47:04;;;;;;;;;;;;;;;;;;2073778;28;19922;-86
2022/07/19 03:48:05;;;;;;;;;;;;;;;;;;2074102;28;19913;-87
2022/07/19 03:49:05;;;;;;;;;;;;;;;;;;2073629;28;19913;-86
2022/07/19 03:50:05;;;;;;;;;;;;;;;;;;2073621;28;19925;-90
2022/07/19 03:51:06;;;;;;;;;;;;;;;;;;2074025;28;20016;-85
2022/07/19 03:52:06;;;;;;;;;;;;;;;;;;2073372;28;19923;-86
2022/07/19 03:53:06;;;;;;;;;;;;;;;;;;2073740;28;19913;-86
2022/07/19 03:54:07;;;;;;;;;;;;;;;;;;2074087;28;19980;-92
2022/07/19 03:55:07;;;;;;;;;;;;;;;;;;2074025;28;20000;-86
2022/07/19 03:56:10;;;;;;;;;;;;;;;;;;2073542;28;19913;-85
2022/07/19 03:57:10;;;;;;;;;;;;;;;;;;2073999;28;19972;-85
2022/07/19 03:58:10;;;;;;;;;;;;;;;;;;2075237;28;19913;-85
2022/07/19 03:59:10;;;;;;;;;;;;;;;;;;2074425;28;19921;-90
2022/07/19 04:00:11;;;;;;;;;;;;;;;;;;2073638;28;19918;-85
2022/07/19 04:01:11;;;;;;;;;;;;;;;;;;2073630;28;20259;-88
2022/07/19 04:02:11;;;;;;;;;;;;;;;;;;2074074;28;19941;-87
2022/07/19 04:03:12;;;;;;;;;;;;;;;;;;2074195;28;20378;-87
2022/07/19 04:04:12;;;;;;;;;;;;;;;;;;2074105;28;19932;-85
2022/07/19 04:05:12;;;;;;;;;;;;;;;;;;2073459;28;20413;-88
2022/07/19 04:06:13;;;;;;;;;;;;;;;;;;2073470;28;19968;-86
2022/07/19 04:07:13;;;;;;;;;;;;;;;;;;2073651;28;19937;-87
2022/07/19 04:08:14;;;;;;;;;;;;;;;;;;2073692;28;19913;-87
2022/07/19 04:09:14;;;;;;;;;;;;;;;;;;2073973;28;20264;-85
2022/07/19 04:10:14;;;;;;;;;;;;;;;;;;2073695;28;19914;-89
2022/07/19 04:11:15;;;;;;;;;;;;;;;;;;2074206;28;20406;-86
2022/07/19 04:12:15;;;;;;;;;;;;;;;;;;2074017;28;19917;-87
2022/07/19 04:13:15;;;;;;;;;;;;;;;;;;2074497;28;19953;-86
2022/07/19 04:14:15;;;;;;;;;;;;;;;;;;2073443;28;19913;-88
2022/07/19 04:15:16;;;;;;;;;;;;;;;;;;2065264;28;19925;-87
2022/07/19 04:16:16;;;;;;;;;;;;;;;;;;2073452;28;19914;-88
2022/07/19 04:17:17;;;;;;;;;;;;;;;;;;2073459;28;19928;-86
2022/07/19 04:18:17;;;;;;;;;;;;;;;;;;2065411;28;19969;-89
2022/07/19 04:19:17;;;;;;;;;;;;;;;;;;2065135;28;19914;-87
2022/07/19 04:20:17;;;;;;;;;;;;;;;;;;2073220;28;19988;-91
2022/07/19 04:21:18;;;;;;;;;;;;;;;;;;2081445;28;19921;-92
2022/07/19 04:22:18;;;;;;;;;;;;;;;;;;2073416;28;20012;-90
2022/07/19 04:23:21;;;;;;;;;;;;;;;;;;2073419;28;19913;-87
2022/07/19 04:24:21;;;;;;;;;;;;;;;;;;2073980;28;19971;-91
2022/07/19 04:25:22;;;;;;;;;;;;;;;;;;2073597;28;20415;-88
2022/07/19 04:26:29;;;;;;;;;;;;;;;;;;2073874;28;19928;-88
2022/07/19 04:27:30;;;;;;;;;;;;;;;;;;2075126;28;19940;-87
2022/07/19 04:28:32;;;;;;;;;;;;;;;;;;2073908;28;19941;-91
2022/07/19 04:29:33;;;;;;;;;;;;;;;;;;2073561;28;19961;-91
2022/07/19 04:30:33;;;;;;;;;;;;;;;;;;2073549;28;20354;-90
2022/07/19 04:31:33;;;;;;;;;;;;;;;;;;2074084;28;19913;-87
2022/07/19 04:32:36;;;;;;;;;;;;;;;;;;2074086;28;19914;-89
2022/07/19 04:33:36;;;;;;;;;;;;;;;;;;2074142;28;20047;-90
2022/07/19 04:34:36;;;;;;;;;;;;;;;;;;2074025;28;20056;-90
2022/07/19 04:35:39;;;;;;;;;;;;;;;;;;2073502;28;19928;-88
2022/07/19 04:36:39;;;;;;;;;;;;;;;;;;2073610;28;19913;-89
2022/07/19 04:37:41;;;;;;;;;;;;;;;;;;2073874;28;19913;-89
2022/07/19 04:38:43;;;;;;;;;;;;;;;;;;2073813;28;19972;-91
2022/07/19 04:39:44;;;;;;;;;;;;;;;;;;2073522;28;19924;-87
2022/07/19 04:40:44;;;;;;;;;;;;;;;;;;2073385;28;19960;-88
2022/07/19 04:41:44;;;;;;;;;;;;;;;;;;2073935;28;19924;-89
2022/07/19 04:42:44;;;;;;;;;;;;;;;;;;2073402;28;19913;-89
2022/07/19 04:43:47;;;;;;;;;;;;;;;;;;2080706;28;20288;-92
2022/07/19 04:44:47;;;;;;;;;;;;;;;;;;2074491;28;20000;-90
2022/07/19 04:45:47;;;;;;;;;;;;;;;;;;2068266;28;19925;-88
2022/07/19 04:46:47;;;;;;;;;;;;;;;;;;2073348;28;20338;-85
2022/07/19 04:47:48;;;;;;;;;;;;;;;;;;2073190;28;19936;-91
2022/07/19 04:48:48;;;;;;;;;;;;;;;;;;2073444;28;19913;-90
2022/07/19 04:49:48;;;;;;;;;;;;;;;;;;2073410;28;19948;-89
2022/07/19 04:50:49;;;;;;;;;;;;;;;;;;2073879;28;19976;-88
2022/07/19 04:51:49;;;;;;;;;;;;;;;;;;2073090;28;19922;-90
2022/07/19 04:52:49;;;;;;;;;;;;;;;;;;2073702;28;20283;-91
2022/07/19 04:53:49;;;;;;;;;;;;;;;;;;2073501;28;19914;-90
2022/07/19 04:54:50;;;;;;;;;;;;;;;;;;2073556;28;20362;-87
2022/07/19 04:55:50;;;;;;;;;;;;;;;;;;2074122;28;19914;-90
2022/07/19 04:56:50;;;;;;;;;;;;;;;;;;2073279;28;20313;-88
2022/07/19 04:57:51;;;;;;;;;;;;;;;;;;2073706;28;19921;-88
2022/07/19 04:58:51;;;;;;;;;;;;;;;;;;2081584;28;19913;-91
2022/07/19 04:59:51;;;;;;;;;;;;;;;;;;2081549;28;19961;-87
2022/07/19 05:00:54;;;;;;;;;;;;;;;;;;2073154;28;19914;-92
2022/07/19 05:01:54;;;;;;;;;;;;;;;;;;2073260;28;20358;-87
2022/07/19 05:02:55;;;;;;;;;;;;;;;;;;2073956;28;19956;-89
2022/07/19 05:03:55;;;;;;;;;;;;;;;;;;2073666;28;20315;-89
2022/07/19 05:04:55;;;;;;;;;;;;;;;;;;2074083;28;19921;-90
2022/07/19 05:05:55;;;;;;;;;;;;;;;;;;2073830;28;19914;-88
2022/07/19 05:06:59;;;;;;;;;;;;;;;;;;2073777;28;19928;-91
2022/07/19 05:08:01;;;;;;;;;;;;;;;;;;2080898;28;19944;-89
2022/07/19 05:09:02;;;;;;;;;;;;;;;;;;2080545;28;19984;-92
2022/07/19 05:10:06;;;;;;;;;;;;;;;;;;2072418;28;20370;-87
2022/07/19 05:11:06;;;;;;;;;;;;;;;;;;2073715;28;19921;-91
2022/07/19 05:12:07;;;;;;;;;;;;;;;;;;2073052;28;19961;-88
2022/07/19 05:13:09;;;;;;;;;;;;;;;;;;2080779;28;19925;-89
2022/07/19 05:14:10;;;;;;;;;;;;;;;;;;2079980;28;20340;-91
2022/07/19 05:15:12;;;;;;;;;;;;;;;;;;2072525;28;19924;-89
2022/07/19 05:16:13;;;;;;;;;;;;;;;;;;2073191;28;20282;-91
2022/07/19 05:17:13;;;;;;;;;;;;;;;;;;2072815;28;19918;-89
2022/07/19 05:18:14;;;;;;;;;;;;;;;;;;2072958;28;19921;-90
2022/07/19 05:19:14;;;;;;;;;;;;;;;;;;2073001;28;19939;-89
2022/07/19 05:20:16;;;;;;;;;;;;;;;;;;2072999;28;19924;-92
2022/07/19 05:21:18;;;;;;;;;;;;;;;;;;2072797;28;19913;-89
2022/07/19 05:22:22;;;;;;;;;;;;;;;;;;2080952;28;19967;-89
2022/07/19 05:23:22;;;;;;;;;;;;;;;;;;2080792;28;19924;-91
2022/07/19 05:24:23;;;;;;;;;;;;;;;;;;2073539;28;19957;-87
2022/07/19 05:25:23;;;;;;;;;;;;;;;;;;2081059;28;19994;-87
2022/07/19 05:26:23;;;;;;;;;;;;;;;;;;2081129;28;19913;-88
2022/07/19 05:27:24;;;;;;;;;;;;;;;;;;2073101;28;19922;-89
2022/07/19 05:28:24;;;;;;;;;;;;;;;;;;2074410;28;20153;-93
2022/07/19 05:29:24;;;;;;;;;;;;;;;;;;2073776;28;19979;-90
2022/07/19 05:30:27;;;;;;;;;;;;;;;;;;2082018;28;19924;-89
2022/07/19 05:31:35;;;;;;;;;;;;;;;;;;2082675;28;20078;-85
2022/07/19 05:32:35;;;;;;;;;;;;;;;;;;2074403;28;19924;-90
2022/07/19 05:33:35;;;;;;;;;;;;;;;;;;2073611;28;20385;-87
2022/07/19 05:34:36;;;;;;;;;;;;;;;;;;2073988;28;19913;-89
2022/07/19 05:35:36;;;;;;;;;;;;;;;;;;2074082;28;19913;-89
2022/07/19 05:36:36;;;;;;;;;;;;;;;;;;2075010;28;19987;-88
2022/07/19 05:37:37;;;;;;;;;;;;;;;;;;2085762;28;19917;-87
2022/07/19 05:38:47;;;;;;;;;;;;;;;;;;2088569;28;20397;-89
2022/07/19 05:39:47;;;;;;;;;;;;;;;;;;2081968;28;19928;-89
2022/07/19 05:40:49;;;;;;;;;;;;;;;;;;2088400;28;19917;-92
2022/07/19 05:41:52;;;;;;;;;;;;;;;;;;2089460;28;19924;-86
2022/07/19 05:42:52;;;;;;;;;;;;;;;;;;2080030;28;19913;-87
2022/07/19 05:43:55;;;;;;;;;;;;;;;;;;2077856;28;19913;-92
2022/07/19 05:44:55;;;;;;;;;;;;;;;;;;2075504;28;20370;-90
2022/07/19 05:45:56;;;;;;;;;;;;;;;;;;2075471;28;20004;-90
2022/07/19 05:46:56;;;;;;;;;;;;;;;;;;2082717;28;19924;-86
2022/07/19 05:47:56;;;;;;;;;;;;;;;;;;2082949;28;19925;-88
2022/07/19 05:48:56;;;;;;;;;;;;;;;;;;2075645;28;20015;-93
2022/07/19 05:49:59;;;;;;;;;;;;;;;;;;2074938;28;20016;-91
2022/07/19 05:51:01;;;;;;;;;;;;;;;;;;2075160;28;19935;-88
2022/07/19 05:52:02;;;;;;;;;;;;;;;;;;2075187;28;20003;-90
2022/07/19 05:53:04;;;;;;;;;;;;;;;;;;2082897;28;19952;-88
2022/07/19 05:54:07;;;;;;;;;;;;;;;;;;2074799;28;20298;-89
2022/07/19 05:55:08;;;;;;;;;;;;;;;;;;2075247;28;19917;-88
2022/07/19 05:56:08;;;;;;;;;;;;;;;;;;2075333;28;19913;-92
2022/07/19 05:57:11;;;;;;;;;;;;;;;;;;2074959;28;20068;-89
2022/07/19 05:58:11;;;;;;;;;;;;;;;;;;2075336;28;20374;-88
2022/07/19 05:59:12;;;;;;;;;;;;;;;;;;2075301;28;19913;-90
2022/07/19 06:00:14;;;;;;;;;;;;;;;;;;2082921;28;19917;-88
2022/07/19 06:01:22;;;;;;;;;;;;;;;;;;2082825;28;19913;-88
2022/07/19 06:02:22;;;;;;;;;;;;;;;;;;2082854;28;19913;-90
2022/07/19 06:03:22;;;;;;;;;;;;;;;;;;2083090;28;20370;-87
2022/07/19 06:04:23;;;;;;;;;;;;;;;;;;2075385;28;19913;-87
2022/07/19 06:05:23;;;;;;;;;;;;;;;;;;2084783;28;19980;-87
2022/07/19 06:06:27;;;;;;;;;;;;;;;;;;2085751;28;19924;-87
2022/07/19 06:07:28;;;;;;;;;;;;;;;;;;2080613;28;19944;-90
2022/07/19 06:08:28;;;;;;;;;;;;;;;;;;2089116;28;19975;-87
2022/07/19 06:09:28;;;;;;;;;;;;;;;;;;2081127;28;20385;-88
2022/07/19 06:10:29;;;;;;;;;;;;;;;;;;2072686;28;19914;-87
2022/07/19 06:11:30;;;;;;;;;;;;;;;;;;2080173;28;19914;-87
2022/07/19 06:12:30;;;;;;;;;;;;;;;;;;2083284;28;19913;-86
2022/07/19 06:13:35;;;;;;;;;;;;;;;;;;2083432;28;19952;-88
2022/07/19 06:14:35;;;;;;;;;;;;;;;;;;2075220;28;20385;-88
2022/07/19 06:15:46;;;;;;;;;;;;;;;;;;2075526;28;19913;-87
2022/07/19 06:17:08;;;;;;;;;;;;;;;;;;2075801;28;20016;-85
2022/07/19 06:18:12;;;;;;;;;;;;;;;;;;2074883;28;19964;-86
2022/07/19 06:19:22;;;;;;;;;;;;;;;;;;2082965;28;19924;-87
2022/07/19 06:20:23;;;;;;;;;;;;;;;;;;2084539;28;20044;-89
2022/07/19 06:21:44;;;;;;;;;;;;;;;;;;2082664;28;19979;-91
2022/07/19 06:22:59;;;;;;;;;;;;;;;;;;2080426;28;19967;-89
2022/07/19 06:23:59;;;;;;;;;;;;;;;;;;2075316;28;19925;-85
2022/07/19 06:25:10;;;;;;;;;;;;;;;;;;;;;
2022/07/19 06:26:18;;;;;;;;;;;;;;;;;;2079723;28;19924;-91
2022/07/19 06:27:29;;;;;;;;;;;;;;;;;;2075064;28;19975;-88
2022/07/19 06:28:41;;;;;;;;;;;;;;;;;;2082216;28;19917;-89
2022/07/19 06:29:43;;;;;;;;;;;;;;;;;;2081200;28;19921;-95
2022/07/19 06:30:53;;;;;;;;;;;;;;;;;;2074250;28;20278;-89
2022/07/19 06:31:56;;;;;;;;;;;;;;;;;;2067350;28;19913;-91
2022/07/19 06:33:01;;;;;;;;;;;;;;;;;;2074381;28;19913;-87
2022/07/19 06:34:23;;;;;;;;;;;;;;;;;;2077762;28;19949;-88
2022/07/19 06:35:27;;;;;;;;;;;;;;;;;;2074748;28;19955;-87
2022/07/19 06:36:40;;;;;;;;;;;;;;;;;;2074836;28;19921;-85
2022/07/19 06:37:44;;;;;;;;;;;;;;;;;;2082420;28;20033;-86
2022/07/19 06:38:47;;;;;;;;;;;;;;;;;;2082506;28;19923;-86
2022/07/19 06:39:49;;;;;;;;;;;;;;;;;;2082619;28;19932;-90
2022/07/19 06:41:09;;;;;;;;;;;;;;;;;;;;;
2022/07/19 06:42:20;;;;;;;;;;;;;;;;;;2074588;28;19914;-88
2022/07/19 06:43:33;;;;;;;;;;;;;;;;;;;;;
2022/07/19 06:44:55;;;;;;;;;;;;;;;;;;;;;
2022/07/19 06:45:59;;;;;;;;;;;;;;;;;;2075037;28;19921;-90
2022/07/19 06:47:04;;;;;;;;;;;;;;;;;;2074910;28;20282;-87
2022/07/19 06:49:35;;;;;;;;;;;;;;;;;;;;;
2022/07/19 06:50:52;;;;;;;;;;;;;;;;;;2074916;28;19961;-92
2022/07/19 06:51:55;;;;;;;;;;;;;;;;;;2074578;28;19914;-85
2022/07/19 06:53:04;;;;;;;;;;;;;;;;;;2074819;28;20000;-85
2022/07/19 06:54:04;;;;;;;;;;;;;;;;;;2077443;28;19913;-89
2022/07/19 06:55:05;;;;;;;;;;;;;;;;;;2074837;28;20335;-87
2022/07/19 06:56:05;;;;;;;;;;;;;;;;;;2082585;28;19924;-86
2022/07/19 06:57:08;;;;;;;;;;;;;;;;;;2082798;28;19917;-86
2022/07/19 06:58:19;;;;;;;;;;;;;;;;;;2083660;28;20281;-92
2022/07/19 06:59:29;;;;;;;;;;;;;;;;;;;;;
2022/07/19 07:00:51;;;;;;;;;;;;;;;;;;2078383;28;19917;-87
2022/07/19 07:01:54;;;;;;;;;;;;;;;;;;2086927;28;19913;-86
2022/07/19 07:02:57;;;;;;;;;;;;;;;;;;2084159;28;19909;-88
2022/07/19 07:04:02;;;;;;;;;;;;;;;;;;2092064;28;19923;-86
2022/07/19 07:05:11;;;;;;;;;;;;;;;;;;2090550;28;19913;-88